• Join FlightAware (Why Join?)
  • Login
  • US Flag 
04:59AM EDT


 

Airport Tracker/Info


-or-


 

Live Flight TrackerFlight Track Log ✈ N6911P ✈ 13-Jul-2013 ✈ KBLD - KWHP

Flight Track Log - Related Links

Times and Time Zones

All times are in EDT time to prevent confusion due to time zone crossing. See the N6911P flight status page for this flight to view local times or setup timezone preferences in your user account.

Time Position Orientation Groundspeed Altitude Reporting Facility
EDT Latitude Longitude Course Direction KTS MPH feet Rate Location/Type
12:22AM 35.6833 -115.4511 231° Southwest 96 110 8,800  Level Los Angeles Center
12:23AM 35.6669 -115.4761 231° Southwest 95 109 9,100 240 Climbing Los Angeles Center
12:24AM 35.6517 -115.5022 234° Southwest 95 109 9,300 240 Climbing Los Angeles Center
12:25AM 35.6319 -115.5344 233° Southwest 96 110 9,700 300 Climbing Los Angeles Center
12:26AM 35.6164 -115.5608 234° Southwest 96 110 10,000 240 Climbing Los Angeles Center
12:27AM 35.5994 -115.5839 228° Southwest 93 107 10,300 240 Climbing Los Angeles Center
12:28AM 35.5792 -115.6061 222° Southwest 95 109 10,500 60 Climbing Los Angeles Center
12:29AM 35.5611 -115.6319 229° Southwest 99 114 10,500  Level Los Angeles Center
12:30AM 35.5419 -115.6622 232° Southwest 107 123 10,500  Level Los Angeles Center
12:31AM 35.5233 -115.6906 231° Southwest 108 124 10,500  Level Los Angeles Center
12:32AM 35.5056 -115.7186 232° Southwest 105 121 10,600  Climbing Los Angeles Center
12:33AM 35.4864 -115.7483 232° Southwest 109 125 10,600 -60 Level Los Angeles Center
12:34AM 35.4683 -115.7794 235° Southwest 111 128 10,500 -60 Descending Los Angeles Center
12:35AM 35.4489 -115.8156 237° Southwest 114 131 10,500  Level Los Angeles Center
12:36AM 35.4314 -115.8461 235° Southwest 112 129 10,600  Climbing Los Angeles Center
12:37AM 35.4139 -115.8758 234° Southwest 110 127 10,600  Level Los Angeles Center
12:38AM 35.3964 -115.9064 235° Southwest 108 124 10,600  Level Los Angeles Center
12:39AM 35.3744 -115.9308 222° Southwest 107 123 10,600  Level Los Angeles Center
12:40AM 35.3514 -115.9533 219° Southwest 105 121 10,600  Level Los Angeles Center
12:41AM 35.3253 -115.9833 223° Southwest 106 122 10,600  Level Los Angeles Center
12:42AM 35.3075 -116.0122 233° Southwest 107 123 10,600  Level Los Angeles Center
12:43AM 35.2869 -116.0394 227° Southwest 107 123 10,600  Level Los Angeles Center
12:44AM 35.2669 -116.0672 229° Southwest 109 125 10,600  Level Los Angeles Center
12:45AM 35.2489 -116.0969 233° Southwest 109 125 10,600 -60 Level Los Angeles Center
12:46AM 35.2317 -116.1261 234° Southwest 108 124 10,500  Descending Los Angeles Center
12:47AM 35.2150 -116.1561 236° Southwest 107 123 10,600  Climbing Los Angeles Center
12:48AM 35.1969 -116.1867 234° Southwest 108 124 10,600  Level Los Angeles Center
12:49AM 35.1736 -116.2239 233° Southwest 112 129 10,600 -60 Level Los Angeles Center
12:50AM 35.1550 -116.2569 235° Southwest 115 132 10,500 -60 Descending Los Angeles Center
12:51AM 35.1361 -116.2889 234° Southwest 116 133 10,500  Level Los Angeles Center
12:52AM 35.1178 -116.3200 234° Southwest 115 132 10,500  Level Los Angeles Center
12:53AM 35.0983 -116.3519 233° Southwest 115 132 10,600  Climbing Los Angeles Center
12:54AM 35.0789 -116.3844 234° Southwest 117 135 10,500 -60 Descending Los Angeles Center
12:55AM 35.0589 -116.4178 234° Southwest 119 137 10,500 -120 Level Los Angeles Center
12:56AM 35.0408 -116.4500 236° Southwest 118 136 10,300 -240 Descending Los Angeles Center
12:58AM 35.0267 -116.4944 249° West 120 138 10,100 -120 Descending Los Angeles Center
12:59AM 35.0236 -116.5319 264° West 115 132 10,100  Level Los Angeles Center
01:00AM 35.0206 -116.5706 264° West 114 131 10,100  Level Los Angeles Center
01:01AM 35.0147 -116.6064 259° West 111 128 10,100  Level Los Angeles Center
01:02AM 35.0067 -116.6431 255° West 111 128 10,100  Level Los Angeles Center
01:03AM 34.9961 -116.6800 251° West 112 129 10,100  Level Los Angeles Center
01:04AM 34.9858 -116.7156 251° West 112 129 10,200 60 Climbing Los Angeles Center
01:05AM 34.9769 -116.7503 253° West 111 128 10,300  Climbing Los Angeles Center
01:06AM 34.9717 -116.7972 262° West 113 130 10,300 -60 Level Los Angeles Center
01:07AM 34.9711 -116.8364 269° West 115 132 10,200 -180 Descending Los Angeles Center
01:08AM 34.9711 -116.8775 270° West 118 136 10,000 -120 Descending Los Angeles Center
01:09AM 34.9675 -116.9142 263° West 115 132 10,000  Level Los Angeles Center
01:10AM 34.9558 -116.9475 247° West 109 125 10,000  Level Los Angeles Center
01:11AM 34.9469 -116.9839 253° West 110 127 10,000  Level Los Angeles Center
01:12AM 34.9381 -117.0194 253° West 110 127 10,000  Level Los Angeles Center
01:13AM 34.9294 -117.0542 253° West 108 124 10,100  Climbing Los Angeles Center
01:14AM 34.9183 -117.0869 248° West 106 122 10,100  Level Los Angeles Center
01:15AM 34.9031 -117.1275 245° Southwest 107 123 10,100  Level Los Angeles Center
01:16AM 34.8903 -117.1614 245° Southwest 109 125 10,100  Level Los Angeles Center
01:17AM 34.8789 -117.1956 248° West 109 125 10,100  Level Los Angeles Center
01:18AM 34.8672 -117.2314 248° West 111 128 10,100 -60 Level Los Angeles Center
01:19AM 34.8556 -117.2661 248° West 112 129 10,000 -120 Descending Los Angeles Center
01:20AM 34.8439 -117.2997 247° West 110 127 9,900  Descending Los Angeles Center
01:22AM 34.8183 -117.3661 245° Southwest 108 124 10,100 60 Climbing Los Angeles Center
01:23AM 34.8092 -117.4003 252° West 108 124 10,100 -60 Level Los Angeles Center
01:24AM 34.7981 -117.4333 248° West 106 122 10,000 -60 Descending Los Angeles Center
01:25AM 34.7886 -117.4686 252° West 109 125 10,000  Level Los Angeles Center
01:27AM 34.7653 -117.5464 250° West 113 130 10,100 60 Climbing Los Angeles Center
01:28AM 34.7558 -117.5822 252° West 112 129 10,200  Climbing Los Angeles Center
01:29AM 34.7444 -117.6164 248° West 110 127 10,100 -120 Descending Los Angeles Center
01:30AM 34.7353 -117.6486 251° West 104 120 10,000  Descending Los Angeles Center
01:31AM 34.7256 -117.6811 250° West 102 117 10,100  Climbing Los Angeles Center
01:32AM 34.7164 -117.7142 251° West 103 119 10,100  Level Los Angeles Center
01:33AM 34.7083 -117.7472 253° West 102 117 10,100 -60 Level Los Angeles Center
01:34AM 34.7017 -117.7825 257° West 106 122 10,000 -240 Descending Los Angeles Center
01:35AM 34.6928 -117.8186 253° West 110 127 9,700 -360 Descending Los Angeles Center
01:36AM 34.6869 -117.8544 259° West 110 127 9,300 -360 Descending Los Angeles Center
01:37AM 34.6781 -117.8908 253° West 111 128 9,000 -360 Descending Los Angeles Center
01:38AM 34.6683 -117.9336 255° West 111 128 8,600 -360 Descending Los Angeles Center
01:39AM 34.6617 -117.9703 258° West 110 127 8,300 -300 Descending Los Angeles Center
01:40AM 34.6531 -118.0050 253° West 110 127 8,100 -120 Descending Los Angeles Center
01:41AM 34.6403 -118.0381 245° Southwest 109 125 8,100 -60 Level Los Angeles Center
01:42AM 34.6294 -118.0706 248° West 105 121 8,000  Descending Los Angeles Center
01:43AM 34.6169 -118.1028 245° Southwest 105 121 8,100 -60 Climbing Los Angeles Center
01:44AM 34.6039 -118.1361 245° Southwest 108 124 7,900 -60 Descending Los Angeles Center
01:46AM 34.5936 -118.1728 251° West 106 122 8,000 60 Climbing Los Angeles Center
01:47AM 34.5828 -118.2050 248° West 104 120 8,100  Climbing Los Angeles Center
01:48AM 34.5728 -118.2400 251° West 111 128 8,100  Level Los Angeles Center
01:49AM 34.5608 -118.2719 246° West 107 123 8,100 -60 Level Los Angeles Center
01:50AM 34.5494 -118.3031 246° West 104 120 8,000  Descending Los Angeles Center
01:51AM 34.5372 -118.3378 247° West 110 127 8,100  Climbing Los Angeles Center
01:52AM 34.5244 -118.3678 243° Southwest 103 119 8,100  Level Los Angeles Center
01:53AM 34.5106 -118.3992 242° Southwest 109 125 8,100 -120 Level Los Angeles Center
01:54AM 34.4944 -118.4364 242° Southwest 105 121 7,900 -360 Descending Los Angeles Center
01:55AM 34.4739 -118.4592 222° Southwest 123 142 7,400 -600 Descending Los Angeles Center
01:56AM 34.4431 -118.4872 217° Southwest 117 135 6,700 -600 Descending Los Angeles Center
01:57AM 34.4164 -118.5161 222° Southwest 126 145 6,200 -360 Descending Los Angeles Center
01:58AM 34.3892 -118.5397 216° Southwest 121 139 6,000 -120 Descending Los Angeles Center
01:59AM 34.3639 -118.5639 218° Southwest 118 136 6,000 -300 Level Los Angeles Center
02:00AM 34.3314 -118.5683 186° South 143 165 5,400 -540 Descending Los Angeles Center
02:01AM 34.2953 -118.5639 174° South 148 170 5,000 -240 Descending Los Angeles Center
02:02AM 34.2642 -118.5581 171° South 125 144 5,000 2,400 Level Los Angeles Center
02:03AM 34.2336 -118.5439 159° South 121 139 10,000 -780 Climbing Los Angeles Center
02:04AM 34.2244 -118.5128 110° East 123 142 3,500 -3,600 Descending Los Angeles Center
02:05AM 34.2297 -118.4758 80° East 116 133 2,800 -720 Descending Los Angeles Center
02:07AM 34.2496 -118.4339 112° Southeast  Level Estimated
02:14AM 34.2593 -118.4134 112° Southeast  Level Estimated
02:15AM 34.2593 -118.4134 112° Southeast  Level Estimated
02:16AM 34.2593 -118.4134 112° Southeast  Level Estimated
02:17AM 34.2593 -118.4134 112° Southeast  Level Estimated
02:18AM 34.2593 -118.4134 112° Southeast  Level Estimated
02:19AM 34.2593 -118.4134 112° Southeast  Level Estimated
02:20AM 34.2593 -118.4134 112° Southeast  Level Estimated
02:21AM 34.2593 -118.4134 112° Southeast  Level Estimated
02:22AM 34.2593 -118.4134 112° Southeast  Level Estimated
02:23AM 34.2593 -118.4134 112° Southeast  Level Estimated